Terminal Aerodrome Forecast
Issued by NWS Los Angeles, CA

Home | Current Version | Previous Version | Text Only | Print | Product List | Glossary On
Versions: 1 2 3 4 5 6 7 8 9 10 11 12 13 14 15 16 17 18 19 20 21
000
FTUS46 KLOX 260500
TAFSMX
TAF
KSMX 260537Z 2606/2706 32007KT P6SM SCT025 SCT100
     FM261000 31006KT P6SM BKN015
     FM261500 31008KT P6SM SCT250
     FM261800 32013G18KT P6SM SKC
     FM262100 30018G26KT P6SM SKC
     FM270400 30012KT P6SM SKC=

USA.gov is the U.S. government's official web portal to all federal, state and local government web resources and services.